Time;durP1;ratioP1;P1;durP2;ratioP2;P2;SDS_P1;SDS_P2;PMS_P1;PMS_P2;Temp;Humidity;BMP_temperature;BMP_pressure;BME280_temperature;BME280_humidity;BME280_pressure;Samples;Min_cycle;Max_cycle;Signal;HPM_P1;HPM_P2
2021/11/19 00:01:13;;;;;;;5.32;2.67;;;;;;;19.62;47.69;102817.34;5094182;28;20039;-69
2021/11/19 00:03:39;;;;;;;5.53;2.80;;;;;;;19.61;47.86;102823.56;5093129;28;20478;-68
2021/11/19 00:06:05;;;;;;;5.38;2.67;;;;;;;19.58;47.54;102817.53;5094368;28;20038;-69
2021/11/19 00:08:31;;;;;;;5.50;2.70;;;;;;;19.57;47.80;102822.91;5093575;28;20115;-69
2021/11/19 00:11:01;;;;;;;5.47;2.78;;;;;;;19.57;47.67;102817.59;5092871;28;20483;-68
2021/11/19 00:13:28;;;;;;;9.57;3.63;;;;;;;19.57;47.72;102814.97;5092900;28;20072;-68
2021/11/19 00:15:55;;;;;;;5.47;2.40;;;;;;;19.55;47.75;102819.47;5093335;28;20047;-68
2021/11/19 00:18:21;;;;;;;5.57;3.10;;;;;;;19.54;47.59;102817.78;5093030;28;20136;-68
2021/11/19 00:20:47;;;;;;;5.45;2.65;;;;;;;19.52;47.75;102809.09;5093200;28;20483;-68
2021/11/19 00:23:13;;;;;;;6.00;3.20;;;;;;;19.52;47.80;102803.78;5092741;28;20073;-68
2021/11/19 00:25:39;;;;;;;5.53;2.97;;;;;;;19.51;47.60;102807.38;5092320;28;20024;-68
2021/11/19 00:28:05;;;;;;;5.85;2.50;;;;;;;19.50;47.92;102806.53;5093114;28;20032;-69
2021/11/19 00:30:35;;;;;;;5.13;2.70;;;;;;;19.49;47.85;102803.97;5092400;28;20036;-69
2021/11/19 00:33:01;;;;;;;6.50;2.42;;;;;;;19.48;47.74;102802.25;5093360;28;20431;-68
2021/11/19 00:35:26;;;;;;;7.35;2.80;;;;;;;19.48;47.62;102807.53;5093082;28;20063;-68
2021/11/19 00:37:55;;;;;;;8.05;2.90;;;;;;;19.46;47.88;102804.97;5092353;28;20047;-68
2021/11/19 00:40:29;;;;;;;5.90;3.15;;;;;;;19.45;47.92;102805.06;5093147;28;20020;-68
2021/11/19 00:42:55;;;;;;;;;;;;;;;19.43;47.92;102809.59;5093266;28;20069;-68
2021/11/19 00:45:23;;;;;;;6.20;2.70;;;;;;;19.43;47.96;102809.59;5092525;28;19915;-69
2021/11/19 00:47:49;;;;;;;5.45;2.75;;;;;;;19.42;48.03;102806.06;5092849;28;20017;-68
2021/11/19 00:50:14;;;;;;;5.03;2.97;;;;;;;19.41;48.05;102812.31;5092898;28;20024;-69
2021/11/19 00:52:40;;;;;;;8.00;3.08;;;;;;;19.39;48.02;102806.25;5091898;28;20074;-68
2021/11/19 00:55:08;;;;;;;5.90;2.80;;;;;;;19.39;47.87;102808.88;5092969;28;20035;-68
2021/11/19 00:57:33;;;;;;;6.55;3.00;;;;;;;19.37;47.87;102798.41;5092476;28;20107;-68
2021/11/19 00:59:58;;;;;;;7.63;2.90;;;;;;;19.35;47.86;102795.00;5092253;28;20058;-69
2021/11/19 01:02:27;;;;;;;4.45;2.70;;;;;;;19.36;48.01;102790.59;5093002;28;20040;-69
2021/11/19 01:04:53;;;;;;;5.43;2.70;;;;;;;19.35;47.79;102802.94;5092996;28;20028;-68
2021/11/19 01:07:20;;;;;;;6.03;3.03;;;;;;;19.34;48.01;102795.97;5092331;28;20517;-69
2021/11/19 01:09:53;;;;;;;5.68;3.08;;;;;;;19.32;47.63;102797.81;5092423;28;20391;-67
2021/11/19 01:12:23;;;;;;;6.25;3.22;;;;;;;19.32;47.93;102799.63;5092719;28;20059;-68
2021/11/19 01:14:59;;;;;;;5.95;3.20;;;;;;;19.33;47.74;102802.16;5091910;28;20115;-68
2021/11/19 01:17:33;;;;;;;6.93;3.13;;;;;;;19.32;47.86;102810.19;5092682;28;20526;-71
2021/11/19 01:20:11;;;;;;;5.75;3.08;;;;;;;19.31;47.85;102808.47;5092156;28;20384;-69
2021/11/19 01:22:39;;;;;;;4.85;2.95;;;;;;;19.30;47.93;102814.72;5092381;28;20043;-69
2021/11/19 01:25:09;;;;;;;6.70;3.22;;;;;;;19.29;48.07;102815.63;5092737;28;20586;-69
2021/11/19 01:27:34;;;;;;;5.60;2.83;;;;;;;19.27;48.04;102814.88;5091465;28;20467;-68
2021/11/19 01:30:00;;;;;;;5.75;2.88;;;;;;;19.28;47.99;102820.09;5092652;28;20088;-69
2021/11/19 01:32:26;;;;;;;7.88;3.42;;;;;;;19.28;48.13;102819.22;5092694;28;20103;-67
2021/11/19 01:34:53;;;;;;;5.57;2.88;;;;;;;19.27;48.12;102820.16;5091921;28;20028;-68
2021/11/19 01:37:19;;;;;;;5.18;3.30;;;;;;;19.26;48.07;102821.09;5096455;28;20028;-69
2021/11/19 01:39:46;;;;;;;7.07;3.70;;;;;;;19.24;47.95;102821.19;5096408;28;20024;-68
2021/11/19 01:42:15;;;;;;;6.00;3.45;;;;;;;19.24;47.77;102823.81;5095858;28;20122;-68
2021/11/19 01:45:04;;;;;;;6.20;3.17;;;;;;;19.24;47.79;102821.19;5096223;28;20051;-68
2021/11/19 01:47:31;;;;;;;5.47;2.92;;;;;;;19.23;48.24;102829.19;5095988;28;20032;-68
2021/11/19 01:49:58;;;;;;;6.47;3.30;;;;;;;19.23;48.11;102822.09;5095677;28;20024;-68
2021/11/19 01:52:34;;;;;;;6.85;3.47;;;;;;;19.21;48.08;102822.19;5096391;28;20040;-68
2021/11/19 01:55:27;;;;;;;6.35;3.60;;;;;;;19.19;48.19;102824.06;5095424;28;20142;-69
2021/11/19 01:58:07;;;;;;;5.82;3.15;;;;;;;19.19;47.76;102818.78;5096096;28;20028;-67
2021/11/19 02:00:39;;;;;;;9.18;3.90;;;;;;;19.18;47.94;102814.47;5095795;28;20097;-68
2021/11/19 02:03:06;;;;;;;8.95;3.35;;;;;;;19.17;47.98;102809.25;5095157;28;20034;-68
2021/11/19 02:05:38;;;;;;;7.47;3.50;;;;;;;19.18;48.24;102809.16;5095658;28;20028;-67
2021/11/19 02:08:10;;;;;;;5.22;3.00;;;;;;;19.18;47.97;102800.38;5096015;28;20502;-68
2021/11/19 02:11:19;;;;;;;6.88;3.38;;;;;;;19.15;48.07;102793.47;5094996;28;20045;-68
2021/11/19 02:13:54;;;;;;;6.18;3.65;;;;;;;19.16;48.01;102794.31;5089639;28;20104;-67
2021/11/19 02:16:29;;;;;;;6.45;3.42;;;;;;;19.13;48.01;102795.34;5095129;28;20070;-68
2021/11/19 02:18:59;;;;;;;7.28;3.67;;;;;;;19.14;47.94;102799.69;5095994;28;20020;-68
2021/11/19 02:21:45;;;;;;;5.95;3.30;;;;;;;19.14;48.29;102796.22;5095715;28;20040;-68
2021/11/19 02:24:22;;;;;;;5.40;3.17;;;;;;;19.12;48.10;102791.00;5094660;28;20451;-68
2021/11/19 02:27:01;;;;;;;7.20;3.58;;;;;;;19.12;48.25;102793.66;5095172;28;20024;-68
2021/11/19 02:29:28;;;;;;;6.00;3.42;;;;;;;19.12;48.17;102793.66;5095463;28;20038;-68
2021/11/19 02:32:08;;;;;;;6.85;3.92;;;;;;;19.09;48.25;102788.53;5094803;28;20032;-68
2021/11/19 02:34:34;;;;;;;6.85;3.47;;;;;;;19.11;48.00;102791.09;5095094;28;20032;-68
2021/11/19 02:37:05;;;;;;;6.43;3.70;;;;;;;19.11;48.04;102799.00;5094469;28;20477;-68
2021/11/19 02:39:38;;;;;;;7.70;3.95;;;;;;;19.11;48.25;102801.66;5094953;28;20047;-69
2021/11/19 02:42:27;;;;;;;5.43;3.22;;;;;;;19.09;48.19;102795.59;5095062;28;20035;-68
2021/11/19 02:44:54;;;;;;;6.30;3.60;;;;;;;19.08;48.10;102792.09;5094481;28;20388;-68
2021/11/19 02:47:23;;;;;;;6.60;3.65;;;;;;;19.09;48.27;102792.94;5094456;28;20043;-68
2021/11/19 02:49:49;;;;;;;6.53;3.60;;;;;;;19.07;48.28;102789.53;5094645;28;20479;-68
2021/11/19 02:52:20;;;;;;;6.93;3.88;;;;;;;19.07;48.28;102786.91;5094444;28;20051;-67
2021/11/19 02:54:47;;;;;;;5.45;3.45;;;;;;;19.06;48.14;102791.34;5094741;28;20103;-68
2021/11/19 02:57:12;;;;;;;5.85;3.67;;;;;;;19.06;48.12;102786.06;5095255;28;20031;-68
2021/11/19 02:59:38;;;;;;;6.55;3.58;;;;;;;19.05;48.47;102786.97;5093804;28;20028;-68
2021/11/19 03:02:09;;;;;;;6.15;3.70;;;;;;;19.06;48.13;102791.34;5094768;28;20071;-68
2021/11/19 03:04:45;;;;;;;7.43;3.90;;;;;;;19.06;48.28;102793.09;5094325;28;20107;-68
2021/11/19 03:07:11;;;;;;;6.35;3.78;;;;;;;19.03;48.13;102787.06;5094206;28;20360;-68
2021/11/19 03:09:40;;;;;;;6.40;3.67;;;;;;;19.02;48.11;102787.13;5094524;28;20058;-68
2021/11/19 03:12:08;;;;;;;5.80;4.07;;;;;;;19.02;47.94;102784.50;5094232;28;20067;-68
2021/11/19 03:14:34;;;;;;;7.30;3.67;;;;;;;19.03;48.31;102794.13;5094292;28;20412;-68
2021/11/19 03:17:01;;;;;;;6.65;3.67;;;;;;;19.03;48.10;102788.84;5094501;28;20399;-68
2021/11/19 03:19:27;;;;;;;5.68;3.30;;;;;;;19.03;48.14;102794.13;5093311;28;20429;-69
2021/11/19 03:21:53;;;;;;;5.95;3.50;;;;;;;19.03;48.05;102780.94;5094685;28;20032;-68
2021/11/19 03:24:21;;;;;;;8.05;3.90;;;;;;;19.01;48.15;102778.38;5094269;28;20460;-69
2021/11/19 03:26:47;;;;;;;6.38;3.90;;;;;;;19.02;48.25;102773.94;5093410;28;20028;-69
2021/11/19 03:29:13;;;;;;;6.50;3.20;;;;;;;19.00;48.19;102773.16;5094193;28;20479;-69
2021/11/19 03:31:40;;;;;;;6.75;3.95;;;;;;;19.00;48.39;102767.88;5093791;28;20020;-68
2021/11/19 03:34:09;;;;;;;6.95;4.15;;;;;;;18.99;48.47;102774.97;5093337;28;20550;-68
2021/11/19 03:36:36;;;;;;;5.97;3.60;;;;;;;18.98;48.05;102778.53;5094053;28;20085;-68
2021/11/19 03:39:03;;;;;;;7.93;3.95;;;;;;;18.99;48.26;102776.75;5094352;28;20035;-68
2021/11/19 03:41:30;;;;;;;6.07;3.63;;;;;;;18.98;48.05;102775.91;5092953;28;20554;-68
2021/11/19 03:44:00;;;;;;;6.47;3.75;;;;;;;18.99;48.07;102779.38;5094034;28;20059;-68
2021/11/19 03:46:30;;;;;;;6.93;3.83;;;;;;;18.99;48.21;102782.03;5094183;28;20020;-68
2021/11/19 03:48:55;;;;;;;6.28;3.70;;;;;;;18.97;48.12;102782.09;5093449;28;20166;-68
2021/11/19 03:51:30;;;;;;;5.65;3.47;;;;;;;18.97;48.09;102779.47;5093884;28;20578;-68
2021/11/19 03:53:56;;;;;;;6.45;3.50;;;;;;;18.96;48.22;102772.50;5093779;28;20024;-68
2021/11/19 03:56:22;;;;;;;6.28;3.40;;;;;;;18.97;48.20;102781.25;5092996;28;20116;-68
2021/11/19 03:58:48;;;;;;;5.95;3.70;;;;;;;18.96;48.38;102782.19;5092234;28;20024;-68
2021/11/19 04:01:26;;;;;;;5.55;3.35;;;;;;;18.95;48.26;102780.50;5093519;28;20080;-68
2021/11/19 04:03:52;;;;;;;6.22;3.92;;;;;;;18.94;48.37;102776.97;5093667;28;20475;-69
2021/11/19 04:06:21;;;;;;;6.53;3.85;;;;;;;18.94;48.31;102778.78;5093753;28;20043;-69
2021/11/19 04:08:46;;;;;;;6.47;3.53;;;;;;;18.93;48.02;102777.94;5092571;28;20437;-68
2021/11/19 04:11:13;;;;;;;6.85;3.35;;;;;;;18.93;48.38;102780.59;5093823;28;20024;-68
2021/11/19 04:13:39;;;;;;;5.88;3.65;;;;;;;18.91;48.28;102779.78;5093382;28;20020;-68
2021/11/19 04:16:10;;;;;;;6.35;3.78;;;;;;;18.93;48.15;102787.63;5093003;28;20070;-69
2021/11/19 04:18:36;;;;;;;5.65;3.50;;;;;;;18.92;48.38;102788.59;5093420;28;20039;-68
2021/11/19 04:21:03;;;;;;;7.90;3.80;;;;;;;18.91;48.12;102782.44;5093225;28;20484;-69
2021/11/19 04:23:29;;;;;;;7.15;3.55;;;;;;;18.91;48.43;102778.94;5092434;28;20405;-68
2021/11/19 04:25:56;;;;;;;6.55;3.58;;;;;;;18.91;48.36;102779.78;5093021;28;20174;-68
2021/11/19 04:28:22;;;;;;;6.05;3.38;;;;;;;18.91;48.25;102790.34;5093229;28;20400;-69
2021/11/19 04:30:51;;;;;;;6.10;3.50;;;;;;;18.90;48.33;102780.75;5092312;28;20032;-68
2021/11/19 04:33:18;;;;;;;6.75;3.63;;;;;;;18.90;48.29;102785.16;5093202;28;20051;-68
2021/11/19 04:35:45;;;;;;;4.80;3.22;;;;;;;18.88;48.29;102787.88;5092734;28;20024;-68
2021/11/19 04:38:11;;;;;;;6.90;3.70;;;;;;;18.89;48.34;102784.31;5092184;28;20073;-68
2021/11/19 04:40:37;;;;;;;6.13;3.65;;;;;;;18.89;48.45;102788.75;5092858;28;20017;-68
2021/11/19 04:43:06;;;;;;;5.13;3.42;;;;;;;18.89;48.52;102781.66;5093184;28;20040;-69
2021/11/19 04:45:33;;;;;;;5.93;3.80;;;;;;;18.89;48.14;102778.19;5092377;28;20110;-68
2021/11/19 04:47:58;;;;;;;5.93;3.42;;;;;;;18.87;48.49;102772.97;5092573;28;20024;-68
2021/11/19 04:50:28;;;;;;;6.25;3.45;;;;;;;18.87;48.46;102777.41;5092893;28;20032;-68
2021/11/19 04:52:54;;;;;;;7.10;3.67;;;;;;;18.87;48.48;102782.69;5095101;28;20038;-68
2021/11/19 04:55:20;;;;;;;4.88;3.30;;;;;;;18.85;48.28;102783.63;5097980;28;20051;-69
2021/11/19 04:57:46;;;;;;;6.38;3.40;;;;;;;18.85;48.25;102791.56;5092128;28;20031;-68
2021/11/19 05:00:23;;;;;;;7.30;3.70;;;;;;;18.83;48.37;102785.47;5092558;28;20020;-69
2021/11/19 05:02:49;;;;;;;6.22;3.63;;;;;;;18.87;48.22;102790.59;5092175;28;20291;-68
2021/11/19 05:05:15;;;;;;;5.40;3.60;;;;;;;18.84;48.19;102792.47;5091559;28;20036;-68
2021/11/19 05:07:40;;;;;;;6.25;3.20;;;;;;;18.84;48.41;102792.47;5092112;28;20056;-69
2021/11/19 05:10:06;;;;;;;5.63;3.50;;;;;;;18.84;48.40;102789.00;5092002;28;20032;-69
2021/11/19 05:12:43;;;;;;;5.05;3.20;;;;;;;18.84;48.33;102789.84;5091165;28;20040;-69
2021/11/19 05:15:11;;;;;;;6.55;3.80;;;;;;;18.83;48.27;102792.53;5092151;28;20032;-69
2021/11/19 05:17:37;;;;;;;6.43;3.58;;;;;;;18.83;48.43;102790.75;5091810;28;20051;-68
2021/11/19 05:20:04;;;;;;;6.30;3.60;;;;;;;18.83;48.42;102793.41;5091412;28;20030;-68
2021/11/19 05:22:30;;;;;;;5.15;2.90;;;;;;;18.83;48.22;102792.53;5091728;28;20047;-68
2021/11/19 05:24:55;;;;;;;5.50;3.30;;;;;;;18.82;48.36;102785.56;5092032;28;20020;-67
2021/11/19 05:27:21;;;;;;;5.82;3.47;;;;;;;18.81;48.43;102789.13;5091285;28;20042;-69
2021/11/19 05:29:47;;;;;;;5.18;3.17;;;;;;;18.80;48.35;102788.28;5091558;28;20035;-68
2021/11/19 05:32:12;;;;;;;5.10;3.03;;;;;;;18.81;48.35;102797.06;5091859;28;20020;-69
2021/11/19 05:34:39;;;;;;;6.55;3.47;;;;;;;18.81;48.65;102792.63;5090615;28;20507;-69
2021/11/19 05:37:05;;;;;;;6.00;3.83;;;;;;;18.80;48.58;102790.94;5091642;28;20052;-68
2021/11/19 05:39:31;;;;;;;5.93;3.60;;;;;;;18.81;48.28;102794.41;5091435;28;20027;-69
2021/11/19 05:41:57;;;;;;;6.45;4.07;;;;;;;18.79;48.38;102788.38;5090946;28;20032;-68
2021/11/19 05:44:22;;;;;;;6.00;3.45;;;;;;;18.77;48.06;102787.56;5091704;28;20031;-68
2021/11/19 05:46:48;;;;;;;5.80;3.70;;;;;;;18.79;48.47;102791.84;5091289;28;20049;-68
2021/11/19 05:49:16;;;;;;;6.03;3.55;;;;;;;18.80;48.54;102798.84;5090852;28;20024;-69
2021/11/19 05:51:43;;;;;;;5.10;3.33;;;;;;;18.78;48.26;102800.69;5091339;28;20395;-69
2021/11/19 05:54:12;;;;;;;6.72;3.42;;;;;;;18.77;48.48;102793.72;5090733;28;20656;-68
2021/11/19 05:56:37;;;;;;;5.85;3.50;;;;;;;18.77;48.45;102793.72;5091303;28;20028;-69
2021/11/19 05:59:04;;;;;;;6.15;3.50;;;;;;;18.78;48.53;102800.69;5091672;28;20028;-68
2021/11/19 06:01:29;;;;;;;7.40;3.67;;;;;;;18.78;48.26;102797.22;5090348;28;20024;-69
2021/11/19 06:03:54;;;;;;;6.13;3.50;;;;;;;18.78;48.37;102789.28;5091752;28;20020;-70
2021/11/19 06:06:20;;;;;;;6.05;3.50;;;;;;;18.78;48.27;102794.56;5091925;28;20323;-68
2021/11/19 06:08:46;;;;;;;5.22;3.50;;;;;;;18.75;48.61;102781.53;5090670;28;20488;-68
2021/11/19 06:11:16;;;;;;;5.93;3.30;;;;;;;18.77;48.59;102799.00;5091501;28;20088;-67
2021/11/19 06:13:49;;;;;;;5.72;3.20;;;;;;;18.77;48.82;102799.00;5091315;28;20397;-69
2021/11/19 06:16:22;;;;;;;6.18;2.90;;;;;;;18.79;48.66;102805.06;5090772;28;20024;-69
2021/11/19 06:18:51;;;;;;;5.47;2.78;;;;;;;18.83;48.95;102808.38;5091324;28;20020;-68
2021/11/19 06:21:22;;;;;;;5.75;2.60;;;;;;;18.86;48.69;102805.59;5091788;28;20051;-69
2021/11/19 06:23:50;;;;;;;5.05;2.40;;;;;;;18.90;48.49;102809.81;5094129;28;20032;-69
2021/11/19 06:26:18;;;;;;;5.55;2.80;;;;;;;18.93;48.70;102814.94;5095044;28;20016;-69
2021/11/19 06:28:46;;;;;;;5.20;2.83;;;;;;;18.96;48.33;102805.97;5094579;28;20028;-69
2021/11/19 06:31:15;;;;;;;4.53;2.85;;;;;;;18.99;48.38;102813.72;5094275;28;20027;-68
2021/11/19 06:33:41;;;;;;;5.55;2.47;;;;;;;19.03;48.49;102816.13;5094521;28;20103;-68
2021/11/19 06:36:08;;;;;;;4.75;2.65;;;;;;;19.06;48.38;102817.75;5094651;28;20109;-69
2021/11/19 06:38:34;;;;;;;4.60;2.50;;;;;;;19.09;48.41;102819.38;5094387;28;20036;-68
2021/11/19 06:40:59;;;;;;;5.85;2.78;;;;;;;19.12;48.08;102822.72;5094514;28;20182;-70
2021/11/19 06:43:24;;;;;;;5.03;2.72;;;;;;;19.15;48.38;102816.38;5093764;28;20024;-68
2021/11/19 06:45:50;;;;;;;5.47;2.70;;;;;;;19.17;48.11;102819.81;5094376;28;20028;-68
2021/11/19 06:48:16;;;;;;;5.53;2.45;;;;;;;19.18;48.15;102827.69;5094889;28;20112;-68
2021/11/19 06:50:44;;;;;;;6.07;2.63;;;;;;;19.19;48.10;102818.78;5093556;28;20438;-69
2021/11/19 06:53:12;;;;;;;5.63;2.58;;;;;;;19.24;48.05;102829.09;5094466;28;20024;-68
2021/11/19 06:55:38;;;;;;;4.15;2.33;;;;;;;19.24;48.03;102823.81;5094292;28;20034;-68
2021/11/19 06:58:05;;;;;;;4.45;2.42;;;;;;;19.27;48.03;102833.38;5094089;28;20024;-69
2021/11/19 07:00:42;;;;;;;4.90;2.85;;;;;;;19.28;47.85;102825.38;5094407;28;20069;-68
2021/11/19 07:03:08;;;;;;;5.07;3.13;;;;;;;19.31;48.31;102842.84;5094582;28;20020;-68
2021/11/19 07:05:33;;;;;;;6.28;2.88;;;;;;;19.32;48.13;102836.63;5093395;28;20040;-67
2021/11/19 07:08:04;;;;;;;5.35;2.83;;;;;;;19.34;48.31;102834.75;5094305;28;20077;-68
2021/11/19 07:10:32;;;;;;;5.85;2.90;;;;;;;19.36;48.32;102840.81;5093809;28;20040;-70
2021/11/19 07:12:57;;;;;;;4.95;2.70;;;;;;;19.37;48.14;102845.16;5093328;28;20079;-68
2021/11/19 07:15:25;;;;;;;4.68;2.15;;;;;;;19.39;48.09;102845.91;5094315;28;20054;-67
2021/11/19 07:17:50;;;;;;;5.80;2.90;;;;;;;19.41;48.05;102844.06;5094017;28;20051;-68
2021/11/19 07:20:19;;;;;;;5.07;2.65;;;;;;;19.43;48.06;102846.63;5093426;28;20375;-68
2021/11/19 07:22:45;;;;;;;5.07;2.65;;;;;;;19.45;48.26;102850.84;5094344;28;20036;-69
2021/11/19 07:25:13;;;;;;;6.05;2.92;;;;;;;19.46;48.14;102849.94;5094739;28;20362;-72
2021/11/19 07:27:40;;;;;;;4.95;2.70;;;;;;;19.47;48.16;102848.13;5092895;28;20562;-69
2021/11/19 07:30:09;;;;;;;5.05;2.78;;;;;;;19.48;48.41;102848.03;5094474;28;20028;-68
2021/11/19 07:32:34;;;;;;;5.88;3.70;;;;;;;19.47;48.31;102848.13;5093184;28;20032;-73
2021/11/19 07:35:00;;;;;;;6.97;3.17;;;;;;;19.47;48.37;102850.78;5093902;28;20036;-68
2021/11/19 07:37:25;;;;;;;6.07;3.13;;;;;;;19.49;48.35;102852.41;5094009;28;20475;-69
2021/11/19 07:39:52;;;;;;;6.10;3.38;;;;;;;19.49;48.53;102848.91;5093169;28;20028;-69
2021/11/19 07:42:18;;;;;;;5.63;3.30;;;;;;;19.51;48.56;102858.47;5093351;28;20028;-71
2021/11/19 07:44:43;;;;;;;8.35;3.20;;;;;;;19.52;48.60;102868.09;5093435;28;20035;-69
2021/11/19 07:47:09;;;;;;;6.05;3.78;;;;;;;19.53;48.84;102869.78;5093003;28;20102;-67
2021/11/19 07:49:37;;;;;;;6.57;3.58;;;;;;;19.53;48.89;102872.44;5094117;28;20032;-68
2021/11/19 07:52:03;;;;;;;6.95;3.15;;;;;;;19.54;48.73;102874.16;5094344;28;20104;-69
2021/11/19 07:54:29;;;;;;;5.85;3.40;;;;;;;19.55;48.79;102867.06;5093013;28;20040;-67
2021/11/19 07:56:54;;;;;;;7.45;4.07;;;;;;;19.55;49.09;102864.41;5093607;28;20144;-67
2021/11/19 07:59:25;;;;;;;5.82;3.35;;;;;;;19.57;49.11;102868.69;5094199;28;20020;-70
2021/11/19 08:01:51;;;;;;;7.47;3.45;;;;;;;19.57;49.33;102874.00;5093550;28;20024;-70
2021/11/19 08:04:17;;;;;;;6.10;3.20;;;;;;;19.58;49.04;102883.63;5093912;28;20077;-71
2021/11/19 08:06:44;;;;;;;7.90;3.58;;;;;;;19.60;49.43;102882.69;5094178;28;20024;-70
2021/11/19 08:09:10;;;;;;;7.38;3.63;;;;;;;19.60;49.37;102875.63;5093966;28;20111;-71
2021/11/19 08:11:35;;;;;;;6.32;3.67;;;;;;;19.60;49.39;102877.38;5093365;28;20614;-72
2021/11/19 08:14:01;;;;;;;6.55;3.50;;;;;;;19.61;49.22;102877.31;5093792;28;20111;-72
2021/11/19 08:16:36;;;;;;;6.35;4.03;;;;;;;19.60;49.58;102878.25;5092730;28;20107;-72
2021/11/19 08:19:04;;;;;;;7.38;4.10;;;;;;;19.61;49.55;102881.75;5093498;28;20032;-70
2021/11/19 08:21:29;;;;;;;6.13;3.90;;;;;;;19.57;49.76;102889.84;5093076;28;20085;-68
2021/11/19 08:24:06;;;;;;;9.30;4.20;;;;;;;19.58;49.75;102883.63;5092632;28;20395;-68
2021/11/19 08:26:38;;;;;;;8.75;3.85;;;;;;;19.57;49.69;102889.84;5093040;28;20494;-67
2021/11/19 08:29:06;;;;;;;8.55;4.13;;;;;;;19.58;49.43;102890.69;5092537;28;20024;-68
2021/11/19 08:31:32;;;;;;;7.55;4.00;;;;;;;19.59;49.52;102889.78;5092584;28;20411;-68
2021/11/19 08:33:57;;;;;;;8.82;3.83;;;;;;;19.59;49.39;102895.06;5093430;28;20036;-69
2021/11/19 08:36:26;;;;;;;6.18;3.65;;;;;;;19.59;49.29;102889.78;5092785;28;20077;-69
2021/11/19 08:38:53;;;;;;;7.13;3.60;;;;;;;19.59;49.33;102892.41;5093094;28;20028;-68
2021/11/19 08:41:20;;;;;;;7.60;3.83;;;;;;;19.61;49.41;102895.81;5093097;28;20024;-69
2021/11/19 08:43:48;;;;;;;8.45;3.90;;;;;;;19.61;49.21;102894.97;5091993;28;20043;-71
2021/11/19 08:46:23;;;;;;;7.40;3.80;;;;;;;19.61;49.29;102892.34;5092456;28;20175;-71
2021/11/19 08:48:49;;;;;;;7.00;3.88;;;;;;;19.60;49.37;102893.25;5092893;28;20031;-71
2021/11/19 08:51:19;;;;;;;7.78;4.13;;;;;;;19.60;49.24;102894.13;5092068;28;20585;-71
2021/11/19 08:53:50;;;;;;;6.63;4.20;;;;;;;19.58;49.44;102893.34;5092526;28;20028;-70
2021/11/19 08:56:16;;;;;;;7.57;4.53;;;;;;;19.56;49.48;102893.44;5092922;28;20445;-70
2021/11/19 08:58:43;;;;;;;9.25;4.35;;;;;;;19.58;49.51;102896.00;5091542;28;20051;-69
2021/11/19 09:01:10;;;;;;;11.10;4.50;;;;;;;19.56;49.46;102889.94;5092897;28;20024;-69
2021/11/19 09:03:36;;;;;;;7.88;4.38;;;;;;;19.56;49.53;102889.94;5092543;28;20210;-71
2021/11/19 09:06:03;;;;;;;6.32;4.07;;;;;;;19.55;49.54;102888.22;5092180;28;20020;-72
2021/11/19 09:08:29;;;;;;;6.78;4.00;;;;;;;19.54;49.38;102897.97;5092446;28;20112;-71
2021/11/19 09:10:56;;;;;;;5.80;3.80;;;;;;;19.55;49.45;102896.16;5091866;28;20422;-68
2021/11/19 09:13:22;;;;;;;6.75;3.65;;;;;;;19.53;49.55;102890.94;5092330;28;20070;-72
2021/11/19 09:15:49;;;;;;;7.30;4.10;;;;;;;19.55;49.36;102893.50;5092149;28;20383;-72
2021/11/19 09:18:27;;;;;;;7.47;3.63;;;;;;;19.56;49.70;102900.53;5092007;28;20059;-72
2021/11/19 09:21:13;;;;;;;6.60;4.22;;;;;;;19.56;49.74;102892.59;5092612;28;20056;-72
2021/11/19 09:23:47;;;;;;;8.02;3.75;;;;;;;19.55;49.97;102893.50;5092103;28;20032;-72
2021/11/19 09:26:17;;;;;;;7.53;4.70;;;;;;;19.58;49.96;102898.63;5092208;28;20032;-72
2021/11/19 09:28:46;;;;;;;7.95;3.97;;;;;;;19.64;49.96;102892.16;5094940;28;20111;-75
2021/11/19 09:31:13;;;;;;;10.82;4.63;;;;;;;19.69;49.70;102898.03;5093104;28;20111;-73
2021/11/19 09:33:39;;;;;;;11.95;4.32;;;;;;;19.71;49.59;102897.03;5092117;28;20112;-75
2021/11/19 09:36:05;;;;;;;11.82;4.10;;;;;;;19.78;49.34;102899.38;5093632;28;20066;-76
2021/11/19 09:38:31;;;;;;;15.48;3.92;;;;;;;19.89;49.42;102899.63;5092591;28;20463;-74
2021/11/19 09:41:12;;;;;;;8.73;4.25;;;;;;;19.98;49.20;102903.53;5092965;28;20080;-72
2021/11/19 09:43:50;;;;;;;9.82;4.45;;;;;;;20.05;49.06;102907.53;5093477;28;20032;-72
2021/11/19 09:46:37;;;;;;;6.53;3.80;;;;;;;20.12;48.78;102906.22;5093027;28;20075;-73
2021/11/19 09:49:21;;;;;;;7.38;4.03;;;;;;;20.19;48.51;102904.13;5093894;28;20036;-73
2021/11/19 09:52:13;;;;;;;7.90;4.57;;;;;;;20.23;48.70;102909.09;5094081;28;19920;-73
2021/11/19 09:55:23;;;;;;;8.25;4.30;;;;;;;20.28;48.83;102906.19;5091952;28;20032;-73
2021/11/19 09:58:03;;;;;;;7.70;4.32;;;;;;;20.31;48.15;102906.03;5089696;28;20055;-68
2021/11/19 10:00:47;;;;;;;6.10;3.55;;;;;;;20.25;48.50;102903.72;5094948;28;20039;-68
2021/11/19 10:03:15;;;;;;;8.18;4.00;;;;;;;20.18;48.65;102903.25;5095709;28;20040;-68
2021/11/19 10:06:00;;;;;;;9.55;4.22;;;;;;;20.12;48.54;102906.22;5098551;28;20028;-78
2021/11/19 10:08:43;;;;;;;;;;;;;;;20.13;48.63;102907.94;5097352;28;20131;-65
2021/11/19 10:11:32;;;;;;;6.10;3.80;;;;;;;20.13;48.69;102901.81;5095797;28;19990;-71
2021/11/19 10:14:26;;;;;;;8.60;3.85;;;;;;;20.09;48.62;102903.75;5103129;28;20088;-72
2021/11/19 10:17:04;;;;;;;6.60;4.10;;;;;;;20.13;48.62;102902.66;5097075;28;20027;-72
2021/11/19 10:19:39;;;;;;;6.13;3.80;;;;;;;20.17;48.69;102903.31;5096485;28;20044;-77
2021/11/19 10:22:19;;;;;;;6.90;4.15;;;;;;;20.16;48.62;102894.53;5095812;28;20458;-71
2021/11/19 10:24:51;;;;;;;6.85;4.00;;;;;;;20.14;48.77;102899.06;5095387;28;20036;-71
2021/11/19 10:27:24;;;;;;;7.63;3.95;;;;;;;20.08;48.79;102902.06;5095440;28;20081;-70
2021/11/19 10:30:31;;;;;;;8.80;3.90;;;;;;;20.02;48.64;102897.13;5094437;28;20031;-71
2021/11/19 10:33:05;;;;;;;8.48;4.22;;;;;;;19.97;48.95;102893.91;5094932;28;20469;-70
2021/11/19 10:35:50;;;;;;;7.97;4.40;;;;;;;19.92;49.10;102897.66;5094318;28;20032;-69
2021/11/19 10:38:40;;;;;;;7.72;4.50;;;;;;;19.93;49.05;102896.72;5096532;28;20483;-75
2021/11/19 10:41:22;;;;;;;5.97;4.18;;;;;;;20.01;49.10;102904.22;5095979;28;20031;-70
2021/11/19 10:43:50;;;;;;;7.00;4.32;;;;;;;20.08;48.99;102902.06;5094958;28;20036;-75
2021/11/19 10:46:42;;;;;;;6.20;3.95;;;;;;;20.14;48.96;102890.25;5097116;28;20131;-74
2021/11/19 10:49:39;;;;;;;7.15;4.05;;;;;;;20.19;48.85;102902.31;5096114;28;20479;-79
2021/11/19 10:52:29;;;;;;;6.78;4.20;;;;;;;20.24;48.80;102900.25;5096537;28;20091;-76
2021/11/19 10:55:16;;;;;;;6.15;3.83;;;;;;;20.28;48.82;102904.44;5097391;28;20540;-78
2021/11/19 10:58:00;;;;;;;7.05;3.83;;;;;;;20.30;49.01;102901.69;5095520;28;20035;-74
2021/11/19 11:00:32;;;;;;;6.95;4.00;;;;;;;20.29;48.94;102898.16;5095068;28;20468;-76
2021/11/19 11:03:06;;;;;;;9.00;4.18;;;;;;;20.30;49.00;102902.53;5095296;28;20047;-73
2021/11/19 11:05:38;;;;;;;6.72;3.55;;;;;;;20.32;48.99;102906.91;5095303;28;20105;-78
2021/11/19 11:08:18;;;;;;;6.95;4.45;;;;;;;20.34;49.01;102905.00;5095463;28;20028;-71
2021/11/19 11:11:27;;;;;;;6.72;3.65;;;;;;;20.35;49.07;102907.56;5095396;28;20070;-76
2021/11/19 11:14:00;;;;;;;7.55;3.75;;;;;;;20.36;49.05;102908.41;5096752;28;20468;-77
2021/11/19 11:16:39;;;;;;;7.88;4.65;;;;;;;20.35;49.11;102901.41;5096112;28;20119;-76
2021/11/19 11:19:10;;;;;;;6.68;4.90;;;;;;;20.32;49.23;102896.31;5094882;28;20074;-75
2021/11/19 11:21:50;;;;;;;5.45;3.50;;;;;;;20.27;49.21;102900.06;5095071;28;20035;-75
2021/11/19 11:24:32;;;;;;;6.07;3.90;;;;;;;20.25;49.33;102891.38;5096637;28;20028;-75
2021/11/19 11:27:18;;;;;;;6.00;3.63;;;;;;;20.22;49.46;102893.31;5099001;28;20087;-75
2021/11/19 11:30:12;;;;;;;6.45;3.92;;;;;;;20.15;49.61;102882.22;5099124;28;20403;-75
2021/11/19 11:32:54;;;;;;;7.20;4.18;;;;;;;20.13;49.60;102885.94;5097694;28;20069;-75
2021/11/19 11:35:38;;;;;;;10.45;4.40;;;;;;;20.09;49.59;102888.75;5100277;28;20034;-75
2021/11/19 11:38:03;;;;;;;7.88;5.28;;;;;;;20.06;49.55;102883.63;5101156;28;20594;-69
2021/11/19 11:41:06;;;;;;;9.67;6.80;;;;;;;19.99;49.80;102887.56;5099280;28;20038;-72
2021/11/19 11:43:41;;;;;;;9.82;7.00;;;;;;;19.96;49.85;102878.94;5098366;28;20068;-69